sensor_id;sensor_type;location;lat;lon;timestamp;P1;durP1;ratioP1;P2;durP2;ratioP2
33844;SDS011;20145;43.118;25.694;2022-08-19T00:01:20;13.05;;;10.73;;
33844;SDS011;20145;43.118;25.694;2022-08-19T00:03:46;12.15;;;11.00;;
33844;SDS011;20145;43.118;25.694;2022-08-19T00:06:11;11.88;;;10.68;;
33844;SDS011;20145;43.118;25.694;2022-08-19T00:08:38;13.95;;;10.73;;
33844;SDS011;20145;43.118;25.694;2022-08-19T00:11:03;11.70;;;10.35;;
33844;SDS011;20145;43.118;25.694;2022-08-19T00:13:29;11.27;;;10.18;;
33844;SDS011;20145;43.118;25.694;2022-08-19T00:15:55;12.02;;;10.82;;
33844;SDS011;20145;43.118;25.694;2022-08-19T00:18:21;11.93;;;10.73;;
33844;SDS011;20145;43.118;25.694;2022-08-19T00:20:47;11.60;;;10.50;;
33844;SDS011;20145;43.118;25.694;2022-08-19T00:23:13;11.63;;;10.48;;
33844;SDS011;20145;43.118;25.694;2022-08-19T00:25:40;11.60;;;10.48;;
33844;SDS011;20145;43.118;25.694;2022-08-19T00:28:05;11.88;;;10.73;;
33844;SDS011;20145;43.118;25.694;2022-08-19T00:30:31;11.98;;;10.70;;
33844;SDS011;20145;43.118;25.694;2022-08-19T00:32:57;11.40;;;10.18;;
33844;SDS011;20145;43.118;25.694;2022-08-19T00:35:23;16.27;;;11.02;;
33844;SDS011;20145;43.118;25.694;2022-08-19T00:37:49;15.75;;;11.35;;
33844;SDS011;20145;43.118;25.694;2022-08-19T00:40:15;13.77;;;10.80;;
33844;SDS011;20145;43.118;25.694;2022-08-19T00:42:42;12.48;;;11.27;;
33844;SDS011;20145;43.118;25.694;2022-08-19T00:45:10;15.30;;;11.85;;
33844;SDS011;20145;43.118;25.694;2022-08-19T00:47:39;18.27;;;12.02;;
33844;SDS011;20145;43.118;25.694;2022-08-19T00:50:05;15.63;;;12.25;;
33844;SDS011;20145;43.118;25.694;2022-08-19T00:52:33;14.63;;;12.35;;
33844;SDS011;20145;43.118;25.694;2022-08-19T00:55:02;18.08;;;12.82;;
33844;SDS011;20145;43.118;25.694;2022-08-19T00:57:32;13.70;;;12.30;;
33844;SDS011;20145;43.118;25.694;2022-08-19T01:00:04;13.30;;;11.88;;
33844;SDS011;20145;43.118;25.694;2022-08-19T01:04:59;12.98;;;11.75;;
33844;SDS011;20145;43.118;25.694;2022-08-19T01:07:26;13.00;;;11.73;;
33844;SDS011;20145;43.118;25.694;2022-08-19T01:09:52;13.25;;;11.93;;
33844;SDS011;20145;43.118;25.694;2022-08-19T01:12:18;14.23;;;11.77;;
33844;SDS011;20145;43.118;25.694;2022-08-19T01:14:44;12.88;;;11.57;;
33844;SDS011;20145;43.118;25.694;2022-08-19T01:17:11;13.55;;;11.73;;
33844;SDS011;20145;43.118;25.694;2022-08-19T01:19:38;14.00;;;11.45;;
33844;SDS011;20145;43.118;25.694;2022-08-19T01:25:09;13.32;;;11.93;;
33844;SDS011;20145;43.118;25.694;2022-08-19T01:27:38;15.93;;;12.88;;
33844;SDS011;20145;43.118;25.694;2022-08-19T01:30:07;14.38;;;12.77;;
33844;SDS011;20145;43.118;25.694;2022-08-19T01:32:33;15.75;;;12.85;;
33844;SDS011;20145;43.118;25.694;2022-08-19T01:35:00;13.68;;;11.95;;
33844;SDS011;20145;43.118;25.694;2022-08-19T01:37:27;14.10;;;12.07;;
33844;SDS011;20145;43.118;25.694;2022-08-19T01:39:54;13.25;;;11.88;;
33844;SDS011;20145;43.118;25.694;2022-08-19T01:42:19;14.07;;;11.90;;
33844;SDS011;20145;43.118;25.694;2022-08-19T01:44:45;12.98;;;11.55;;
33844;SDS011;20145;43.118;25.694;2022-08-19T01:47:10;13.00;;;11.70;;
33844;SDS011;20145;43.118;25.694;2022-08-19T01:49:36;13.85;;;11.80;;
33844;SDS011;20145;43.118;25.694;2022-08-19T01:52:02;13.80;;;12.35;;
33844;SDS011;20145;43.118;25.694;2022-08-19T01:54:28;18.85;;;11.98;;
33844;SDS011;20145;43.118;25.694;2022-08-19T01:57:06;12.55;;;11.30;;
33844;SDS011;20145;43.118;25.694;2022-08-19T01:59:36;15.00;;;11.30;;
33844;SDS011;20145;43.118;25.694;2022-08-19T02:02:03;12.93;;;11.73;;
33844;SDS011;20145;43.118;25.694;2022-08-19T02:04:32;12.10;;;11.00;;
33844;SDS011;20145;43.118;25.694;2022-08-19T02:06:58;12.80;;;11.70;;
33844;SDS011;20145;43.118;25.694;2022-08-19T02:09:23;12.60;;;11.30;;
33844;SDS011;20145;43.118;25.694;2022-08-19T02:11:49;13.48;;;12.07;;
33844;SDS011;20145;43.118;25.694;2022-08-19T02:14:14;12.73;;;11.48;;
33844;SDS011;20145;43.118;25.694;2022-08-19T02:16:40;14.60;;;12.07;;
33844;SDS011;20145;43.118;25.694;2022-08-19T02:19:24;12.77;;;11.60;;
33844;SDS011;20145;43.118;25.694;2022-08-19T02:21:49;16.02;;;11.45;;
33844;SDS011;20145;43.118;25.694;2022-08-19T02:24:15;15.68;;;11.85;;
33844;SDS011;20145;43.118;25.694;2022-08-19T02:26:42;12.98;;;11.77;;
33844;SDS011;20145;43.118;25.694;2022-08-19T02:29:07;12.82;;;11.52;;
33844;SDS011;20145;43.118;25.694;2022-08-19T02:31:33;13.43;;;11.98;;
33844;SDS011;20145;43.118;25.694;2022-08-19T02:33:58;13.60;;;12.07;;
33844;SDS011;20145;43.118;25.694;2022-08-19T02:36:24;15.57;;;12.73;;
33844;SDS011;20145;43.118;25.694;2022-08-19T02:38:50;14.32;;;11.77;;
33844;SDS011;20145;43.118;25.694;2022-08-19T02:41:19;12.23;;;10.95;;
33844;SDS011;20145;43.118;25.694;2022-08-19T02:43:47;12.00;;;10.80;;
33844;SDS011;20145;43.118;25.694;2022-08-19T02:46:21;13.60;;;11.10;;
33844;SDS011;20145;43.118;25.694;2022-08-19T02:48:48;13.18;;;11.88;;
33844;SDS011;20145;43.118;25.694;2022-08-19T02:51:19;13.30;;;11.70;;
33844;SDS011;20145;43.118;25.694;2022-08-19T02:56:12;12.23;;;10.98;;
33844;SDS011;20145;43.118;25.694;2022-08-19T02:58:38;12.15;;;10.95;;
33844;SDS011;20145;43.118;25.694;2022-08-19T03:01:04;12.48;;;11.10;;
33844;SDS011;20145;43.118;25.694;2022-08-19T03:03:29;16.50;;;11.60;;
33844;SDS011;20145;43.118;25.694;2022-08-19T03:08:31;13.20;;;10.65;;
33844;SDS011;20145;43.118;25.694;2022-08-19T03:10:57;13.65;;;11.57;;
33844;SDS011;20145;43.118;25.694;2022-08-19T03:13:23;13.20;;;11.82;;
33844;SDS011;20145;43.118;25.694;2022-08-19T03:15:49;12.68;;;11.45;;
33844;SDS011;20145;43.118;25.694;2022-08-19T03:18:15;12.23;;;11.02;;
33844;SDS011;20145;43.118;25.694;2022-08-19T03:20:42;12.98;;;11.68;;
33844;SDS011;20145;43.118;25.694;2022-08-19T03:23:14;13.32;;;11.95;;
33844;SDS011;20145;43.118;25.694;2022-08-19T03:25:42;14.10;;;11.82;;
33844;SDS011;20145;43.118;25.694;2022-08-19T03:28:13;13.52;;;11.55;;
33844;SDS011;20145;43.118;25.694;2022-08-19T03:30:40;12.73;;;11.52;;
33844;SDS011;20145;43.118;25.694;2022-08-19T03:33:07;14.18;;;12.85;;
33844;SDS011;20145;43.118;25.694;2022-08-19T03:35:34;15.35;;;12.40;;
33844;SDS011;20145;43.118;25.694;2022-08-19T03:38:02;14.85;;;11.50;;
33844;SDS011;20145;43.118;25.694;2022-08-19T03:40:29;15.32;;;12.48;;
33844;SDS011;20145;43.118;25.694;2022-08-19T03:42:55;14.45;;;12.95;;
33844;SDS011;20145;43.118;25.694;2022-08-19T03:45:21;16.02;;;12.02;;
33844;SDS011;20145;43.118;25.694;2022-08-19T03:47:48;13.60;;;11.98;;
33844;SDS011;20145;43.118;25.694;2022-08-19T03:50:14;14.43;;;12.82;;
33844;SDS011;20145;43.118;25.694;2022-08-19T03:52:40;14.93;;;13.32;;
33844;SDS011;20145;43.118;25.694;2022-08-19T03:55:06;13.52;;;12.32;;
33844;SDS011;20145;43.118;25.694;2022-08-19T03:57:32;15.65;;;11.55;;
33844;SDS011;20145;43.118;25.694;2022-08-19T03:59:59;12.90;;;11.70;;
33844;SDS011;20145;43.118;25.694;2022-08-19T04:02:25;14.43;;;11.45;;
33844;SDS011;20145;43.118;25.694;2022-08-19T04:04:52;13.55;;;12.25;;
33844;SDS011;20145;43.118;25.694;2022-08-19T04:07:19;16.33;;;11.90;;
33844;SDS011;20145;43.118;25.694;2022-08-19T04:09:46;13.32;;;10.50;;
33844;SDS011;20145;43.118;25.694;2022-08-19T04:12:13;13.20;;;11.77;;
33844;SDS011;20145;43.118;25.694;2022-08-19T04:14:40;13.60;;;10.88;;
33844;SDS011;20145;43.118;25.694;2022-08-19T04:17:06;12.18;;;10.95;;
33844;SDS011;20145;43.118;25.694;2022-08-19T04:19:33;14.35;;;12.20;;
33844;SDS011;20145;43.118;25.694;2022-08-19T04:22:00;13.77;;;11.05;;
33844;SDS011;20145;43.118;25.694;2022-08-19T04:24:26;12.25;;;11.02;;
33844;SDS011;20145;43.118;25.694;2022-08-19T04:26:52;12.63;;;11.43;;
33844;SDS011;20145;43.118;25.694;2022-08-19T04:29:20;11.13;;;10.13;;
33844;SDS011;20145;43.118;25.694;2022-08-19T04:31:47;12.38;;;11.07;;
33844;SDS011;20145;43.118;25.694;2022-08-19T04:34:15;19.10;;;10.98;;
33844;SDS011;20145;43.118;25.694;2022-08-19T04:36:43;13.13;;;11.40;;
33844;SDS011;20145;43.118;25.694;2022-08-19T04:39:13;14.77;;;11.02;;
33844;SDS011;20145;43.118;25.694;2022-08-19T04:41:40;11.77;;;10.38;;
33844;SDS011;20145;43.118;25.694;2022-08-19T04:44:25;12.35;;;10.43;;
33844;SDS011;20145;43.118;25.694;2022-08-19T04:46:55;12.25;;;11.05;;
33844;SDS011;20145;43.118;25.694;2022-08-19T04:49:21;17.52;;;11.95;;
33844;SDS011;20145;43.118;25.694;2022-08-19T04:51:48;14.88;;;11.80;;
33844;SDS011;20145;43.118;25.694;2022-08-19T04:54:15;18.48;;;11.52;;
33844;SDS011;20145;43.118;25.694;2022-08-19T04:56:42;12.60;;;11.38;;
33844;SDS011;20145;43.118;25.694;2022-08-19T04:59:09;15.05;;;11.18;;
33844;SDS011;20145;43.118;25.694;2022-08-19T05:01:36;17.17;;;13.13;;
33844;SDS011;20145;43.118;25.694;2022-08-19T05:04:03;14.27;;;11.20;;
33844;SDS011;20145;43.118;25.694;2022-08-19T05:06:31;19.30;;;11.85;;
33844;SDS011;20145;43.118;25.694;2022-08-19T05:08:58;11.88;;;10.40;;
33844;SDS011;20145;43.118;25.694;2022-08-19T05:11:30;12.93;;;11.63;;
33844;SDS011;20145;43.118;25.694;2022-08-19T05:13:58;14.65;;;10.68;;
33844;SDS011;20145;43.118;25.694;2022-08-19T05:16:24;15.20;;;11.32;;
33844;SDS011;20145;43.118;25.694;2022-08-19T05:18:51;15.10;;;10.52;;
33844;SDS011;20145;43.118;25.694;2022-08-19T05:21:35;16.27;;;12.27;;
33844;SDS011;20145;43.118;25.694;2022-08-19T05:24:20;17.30;;;12.23;;
33844;SDS011;20145;43.118;25.694;2022-08-19T05:26:48;14.77;;;11.32;;
33844;SDS011;20145;43.118;25.694;2022-08-19T05:29:15;21.70;;;12.90;;
33844;SDS011;20145;43.118;25.694;2022-08-19T05:31:44;21.50;;;13.27;;
33844;SDS011;20145;43.118;25.694;2022-08-19T05:34:10;34.33;;;29.33;;
33844;SDS011;20145;43.118;25.694;2022-08-19T05:36:38;32.65;;;28.30;;
33844;SDS011;20145;43.118;25.694;2022-08-19T05:39:11;25.98;;;17.85;;
33844;SDS011;20145;43.118;25.694;2022-08-19T05:41:45;20.92;;;16.77;;
33844;SDS011;20145;43.118;25.694;2022-08-19T05:44:13;24.75;;;16.48;;
33844;SDS011;20145;43.118;25.694;2022-08-19T05:46:40;19.05;;;16.75;;
33844;SDS011;20145;43.118;25.694;2022-08-19T05:49:07;18.23;;;15.27;;
33844;SDS011;20145;43.118;25.694;2022-08-19T05:51:34;19.77;;;14.95;;
33844;SDS011;20145;43.118;25.694;2022-08-19T05:54:02;16.77;;;14.88;;
33844;SDS011;20145;43.118;25.694;2022-08-19T05:56:30;15.82;;;14.32;;
33844;SDS011;20145;43.118;25.694;2022-08-19T05:58:56;17.27;;;15.52;;
33844;SDS011;20145;43.118;25.694;2022-08-19T06:01:23;17.40;;;14.25;;
33844;SDS011;20145;43.118;25.694;2022-08-19T06:03:51;15.88;;;13.98;;
33844;SDS011;20145;43.118;25.694;2022-08-19T06:06:17;17.13;;;15.32;;
33844;SDS011;20145;43.118;25.694;2022-08-19T06:08:43;14.80;;;13.40;;
33844;SDS011;20145;43.118;25.694;2022-08-19T06:14:03;14.55;;;10.85;;
33844;SDS011;20145;43.118;25.694;2022-08-19T06:16:34;12.90;;;10.95;;
33844;SDS011;20145;43.118;25.694;2022-08-19T06:19:06;14.85;;;10.32;;
33844;SDS011;20145;43.118;25.694;2022-08-19T06:21:33;12.68;;;10.30;;
33844;SDS011;20145;43.118;25.694;2022-08-19T06:24:03;12.95;;;9.75;;
33844;SDS011;20145;43.118;25.694;2022-08-19T06:26:30;14.70;;;9.85;;
33844;SDS011;20145;43.118;25.694;2022-08-19T06:28:56;11.00;;;9.82;;
33844;SDS011;20145;43.118;25.694;2022-08-19T06:31:24;10.75;;;9.68;;
33844;SDS011;20145;43.118;25.694;2022-08-19T06:33:52;11.00;;;8.68;;
33844;SDS011;20145;43.118;25.694;2022-08-19T06:36:22;9.55;;;8.65;;
33844;SDS011;20145;43.118;25.694;2022-08-19T06:38:57;10.98;;;8.73;;
33844;SDS011;20145;43.118;25.694;2022-08-19T06:41:24;10.65;;;8.82;;
33844;SDS011;20145;43.118;25.694;2022-08-19T06:43:50;11.63;;;8.07;;
33844;SDS011;20145;43.118;25.694;2022-08-19T06:46:17;10.45;;;8.55;;
33844;SDS011;20145;43.118;25.694;2022-08-19T06:48:43;9.55;;;8.65;;
33844;SDS011;20145;43.118;25.694;2022-08-19T06:51:09;10.98;;;7.78;;
33844;SDS011;20145;43.118;25.694;2022-08-19T06:53:35;12.82;;;8.65;;
33844;SDS011;20145;43.118;25.694;2022-08-19T06:56:01;9.82;;;8.02;;
33844;SDS011;20145;43.118;25.694;2022-08-19T06:58:28;10.00;;;8.55;;
33844;SDS011;20145;43.118;25.694;2022-08-19T07:01:02;10.35;;;7.70;;
33844;SDS011;20145;43.118;25.694;2022-08-19T07:03:29;10.70;;;8.23;;
33844;SDS011;20145;43.118;25.694;2022-08-19T07:05:57;9.68;;;8.32;;
33844;SDS011;20145;43.118;25.694;2022-08-19T07:08:24;9.95;;;8.25;;
33844;SDS011;20145;43.118;25.694;2022-08-19T07:10:51;12.88;;;7.63;;
33844;SDS011;20145;43.118;25.694;2022-08-19T07:13:17;10.27;;;6.88;;
33844;SDS011;20145;43.118;25.694;2022-08-19T07:15:42;12.95;;;7.55;;
33844;SDS011;20145;43.118;25.694;2022-08-19T07:18:08;12.32;;;7.90;;
33844;SDS011;20145;43.118;25.694;2022-08-19T07:20:33;12.98;;;7.03;;
33844;SDS011;20145;43.118;25.694;2022-08-19T07:22:59;8.63;;;7.75;;
33844;SDS011;20145;43.118;25.694;2022-08-19T07:25:25;8.80;;;7.82;;
33844;SDS011;20145;43.118;25.694;2022-08-19T07:27:51;10.43;;;7.60;;
33844;SDS011;20145;43.118;25.694;2022-08-19T07:30:16;11.48;;;7.72;;
33844;SDS011;20145;43.118;25.694;2022-08-19T07:32:42;10.50;;;7.10;;
33844;SDS011;20145;43.118;25.694;2022-08-19T07:35:08;12.18;;;6.93;;
33844;SDS011;20145;43.118;25.694;2022-08-19T07:37:35;12.30;;;7.20;;
33844;SDS011;20145;43.118;25.694;2022-08-19T07:40:03;10.23;;;7.38;;
33844;SDS011;20145;43.118;25.694;2022-08-19T07:42:30;8.68;;;7.65;;
33844;SDS011;20145;43.118;25.694;2022-08-19T07:44:56;9.95;;;7.63;;
33844;SDS011;20145;43.118;25.694;2022-08-19T07:47:22;11.30;;;7.40;;
33844;SDS011;20145;43.118;25.694;2022-08-19T07:49:48;9.80;;;7.70;;
33844;SDS011;20145;43.118;25.694;2022-08-19T07:52:13;12.32;;;7.47;;
33844;SDS011;20145;43.118;25.694;2022-08-19T07:54:39;14.73;;;8.05;;
33844;SDS011;20145;43.118;25.694;2022-08-19T07:57:06;10.80;;;7.60;;
33844;SDS011;20145;43.118;25.694;2022-08-19T07:59:33;12.10;;;6.95;;
33844;SDS011;20145;43.118;25.694;2022-08-19T08:02:00;13.02;;;7.55;;
33844;SDS011;20145;43.118;25.694;2022-08-19T08:04:26;13.68;;;7.20;;
33844;SDS011;20145;43.118;25.694;2022-08-19T08:07:11;9.73;;;7.18;;
33844;SDS011;20145;43.118;25.694;2022-08-19T08:09:55;8.60;;;7.22;;
33844;SDS011;20145;43.118;25.694;2022-08-19T08:12:26;9.70;;;6.35;;
33844;SDS011;20145;43.118;25.694;2022-08-19T08:14:56;9.50;;;6.68;;
33844;SDS011;20145;43.118;25.694;2022-08-19T08:17:27;11.88;;;6.38;;
33844;SDS011;20145;43.118;25.694;2022-08-19T08:19:54;11.18;;;6.32;;
33844;SDS011;20145;43.118;25.694;2022-08-19T08:22:21;9.70;;;6.20;;
33844;SDS011;20145;43.118;25.694;2022-08-19T08:25:07;9.25;;;5.80;;
33844;SDS011;20145;43.118;25.694;2022-08-19T08:27:38;8.80;;;6.38;;
33844;SDS011;20145;43.118;25.694;2022-08-19T08:30:06;6.90;;;5.97;;
33844;SDS011;20145;43.118;25.694;2022-08-19T08:32:37;11.80;;;6.18;;
33844;SDS011;20145;43.118;25.694;2022-08-19T08:35:04;9.52;;;6.40;;
33844;SDS011;20145;43.118;25.694;2022-08-19T08:37:32;10.60;;;6.15;;
33844;SDS011;20145;43.118;25.694;2022-08-19T08:39:57;13.77;;;7.43;;
33844;SDS011;20145;43.118;25.694;2022-08-19T08:42:31;11.55;;;7.05;;
33844;SDS011;20145;43.118;25.694;2022-08-19T08:45:00;10.88;;;6.93;;
33844;SDS011;20145;43.118;25.694;2022-08-19T08:47:32;8.93;;;6.03;;
33844;SDS011;20145;43.118;25.694;2022-08-19T08:52:37;10.90;;;6.97;;
33844;SDS011;20145;43.118;25.694;2022-08-19T08:55:11;11.43;;;6.05;;
33844;SDS011;20145;43.118;25.694;2022-08-19T09:00:18;7.72;;;5.95;;
33844;SDS011;20145;43.118;25.694;2022-08-19T09:02:51;9.60;;;6.28;;
33844;SDS011;20145;43.118;25.694;2022-08-19T09:05:19;9.18;;;6.10;;
33844;SDS011;20145;43.118;25.694;2022-08-19T09:16:19;8.77;;;6.55;;
33844;SDS011;20145;43.118;25.694;2022-08-19T09:18:52;7.45;;;6.63;;
33844;SDS011;20145;43.118;25.694;2022-08-19T09:21:23;8.88;;;6.30;;
33844;SDS011;20145;43.118;25.694;2022-08-19T09:23:51;7.70;;;6.20;;
33844;SDS011;20145;43.118;25.694;2022-08-19T09:26:18;10.90;;;5.97;;
33844;SDS011;20145;43.118;25.694;2022-08-19T09:28:46;9.20;;;6.28;;
33844;SDS011;20145;43.118;25.694;2022-08-19T09:31:16;10.75;;;6.75;;
33844;SDS011;20145;43.118;25.694;2022-08-19T09:33:44;11.60;;;6.50;;
33844;SDS011;20145;43.118;25.694;2022-08-19T09:36:13;12.15;;;6.55;;
33844;SDS011;20145;43.118;25.694;2022-08-19T09:38:40;9.32;;;6.00;;
33844;SDS011;20145;43.118;25.694;2022-08-19T09:41:08;6.78;;;5.90;;
33844;SDS011;20145;43.118;25.694;2022-08-19T09:43:38;10.57;;;6.13;;
33844;SDS011;20145;43.118;25.694;2022-08-19T09:46:05;7.28;;;5.90;;
33844;SDS011;20145;43.118;25.694;2022-08-19T09:48:34;10.82;;;6.18;;
33844;SDS011;20145;43.118;25.694;2022-08-19T09:51:07;6.93;;;6.28;;
33844;SDS011;20145;43.118;25.694;2022-08-19T09:53:35;6.60;;;5.85;;
33844;SDS011;20145;43.118;25.694;2022-08-19T09:56:02;8.68;;;5.80;;
33844;SDS011;20145;43.118;25.694;2022-08-19T09:58:28;8.80;;;6.60;;
33844;SDS011;20145;43.118;25.694;2022-08-19T10:00:56;7.95;;;6.10;;
33844;SDS011;20145;43.118;25.694;2022-08-19T10:03:23;7.60;;;5.95;;
33844;SDS011;20145;43.118;25.694;2022-08-19T10:05:49;6.68;;;6.07;;
33844;SDS011;20145;43.118;25.694;2022-08-19T10:08:16;8.77;;;5.95;;
33844;SDS011;20145;43.118;25.694;2022-08-19T10:10:44;7.07;;;6.28;;
33844;SDS011;20145;43.118;25.694;2022-08-19T10:13:11;6.72;;;6.03;;
33844;SDS011;20145;43.118;25.694;2022-08-19T10:15:37;7.45;;;6.07;;
33844;SDS011;20145;43.118;25.694;2022-08-19T10:18:04;12.45;;;6.18;;
33844;SDS011;20145;43.118;25.694;2022-08-19T10:20:31;8.90;;;5.97;;
33844;SDS011;20145;43.118;25.694;2022-08-19T10:22:56;8.05;;;6.32;;
33844;SDS011;20145;43.118;25.694;2022-08-19T10:25:24;8.98;;;6.25;;
33844;SDS011;20145;43.118;25.694;2022-08-19T10:27:52;9.77;;;5.63;;
33844;SDS011;20145;43.118;25.694;2022-08-19T10:30:18;7.68;;;5.88;;
33844;SDS011;20145;43.118;25.694;2022-08-19T10:32:44;6.95;;;5.68;;
33844;SDS011;20145;43.118;25.694;2022-08-19T10:35:11;7.07;;;5.85;;
33844;SDS011;20145;43.118;25.694;2022-08-19T10:37:38;8.25;;;5.60;;
33844;SDS011;20145;43.118;25.694;2022-08-19T10:40:07;8.40;;;5.43;;
33844;SDS011;20145;43.118;25.694;2022-08-19T10:42:34;12.48;;;6.00;;
33844;SDS011;20145;43.118;25.694;2022-08-19T10:45:00;8.68;;;5.85;;
33844;SDS011;20145;43.118;25.694;2022-08-19T10:47:27;8.95;;;5.80;;
33844;SDS011;20145;43.118;25.694;2022-08-19T10:49:53;6.50;;;5.53;;
33844;SDS011;20145;43.118;25.694;2022-08-19T10:52:39;7.13;;;5.40;;
33844;SDS011;20145;43.118;25.694;2022-08-19T10:55:06;10.18;;;5.43;;
33844;SDS011;20145;43.118;25.694;2022-08-19T10:57:51;7.20;;;5.30;;
33844;SDS011;20145;43.118;25.694;2022-08-19T11:00:18;8.02;;;5.10;;
33844;SDS011;20145;43.118;25.694;2022-08-19T11:02:48;8.73;;;5.35;;
33844;SDS011;20145;43.118;25.694;2022-08-19T11:05:14;7.22;;;5.55;;
33844;SDS011;20145;43.118;25.694;2022-08-19T11:07:41;8.25;;;5.80;;
33844;SDS011;20145;43.118;25.694;2022-08-19T11:10:08;7.28;;;5.47;;
33844;SDS011;20145;43.118;25.694;2022-08-19T11:12:36;6.90;;;6.00;;
33844;SDS011;20145;43.118;25.694;2022-08-19T11:15:05;8.15;;;5.25;;
33844;SDS011;20145;43.118;25.694;2022-08-19T11:17:36;5.90;;;5.30;;
33844;SDS011;20145;43.118;25.694;2022-08-19T11:20:09;7.97;;;5.50;;
33844;SDS011;20145;43.118;25.694;2022-08-19T11:22:39;8.48;;;5.32;;
33844;SDS011;20145;43.118;25.694;2022-08-19T11:25:06;9.35;;;5.65;;
33844;SDS011;20145;43.118;25.694;2022-08-19T11:27:32;9.45;;;5.00;;
33844;SDS011;20145;43.118;25.694;2022-08-19T11:29:58;7.35;;;4.75;;
33844;SDS011;20145;43.118;25.694;2022-08-19T11:32:25;7.40;;;4.55;;
33844;SDS011;20145;43.118;25.694;2022-08-19T11:34:51;6.25;;;5.05;;
33844;SDS011;20145;43.118;25.694;2022-08-19T11:37:17;7.72;;;5.03;;
33844;SDS011;20145;43.118;25.694;2022-08-19T11:39:43;8.40;;;5.20;;
33844;SDS011;20145;43.118;25.694;2022-08-19T11:42:08;7.75;;;4.93;;
33844;SDS011;20145;43.118;25.694;2022-08-19T11:44:52;6.38;;;5.32;;
33844;SDS011;20145;43.118;25.694;2022-08-19T11:47:19;10.27;;;5.55;;
33844;SDS011;20145;43.118;25.694;2022-08-19T11:49:45;8.82;;;5.15;;
33844;SDS011;20145;43.118;25.694;2022-08-19T11:52:12;7.07;;;5.07;;
33844;SDS011;20145;43.118;25.694;2022-08-19T11:54:37;11.40;;;5.20;;
33844;SDS011;20145;43.118;25.694;2022-08-19T11:57:03;10.02;;;5.10;;
33844;SDS011;20145;43.118;25.694;2022-08-19T11:59:29;8.95;;;4.63;;
33844;SDS011;20145;43.118;25.694;2022-08-19T12:01:55;9.85;;;5.30;;
33844;SDS011;20145;43.118;25.694;2022-08-19T12:04:21;6.03;;;4.68;;
33844;SDS011;20145;43.118;25.694;2022-08-19T12:06:47;6.97;;;4.85;;
33844;SDS011;20145;43.118;25.694;2022-08-19T12:09:15;8.27;;;4.82;;
33844;SDS011;20145;43.118;25.694;2022-08-19T12:11:42;6.22;;;4.97;;
33844;SDS011;20145;43.118;25.694;2022-08-19T12:14:10;5.22;;;4.72;;
33844;SDS011;20145;43.118;25.694;2022-08-19T12:16:38;10.23;;;5.47;;
33844;SDS011;20145;43.118;25.694;2022-08-19T12:19:04;9.63;;;4.95;;
33844;SDS011;20145;43.118;25.694;2022-08-19T12:21:32;7.03;;;5.00;;
33844;SDS011;20145;43.118;25.694;2022-08-19T12:24:00;6.80;;;4.68;;
33844;SDS011;20145;43.118;25.694;2022-08-19T12:26:27;7.15;;;4.70;;
33844;SDS011;20145;43.118;25.694;2022-08-19T12:28:53;9.82;;;5.28;;
33844;SDS011;20145;43.118;25.694;2022-08-19T12:31:19;5.50;;;4.90;;
33844;SDS011;20145;43.118;25.694;2022-08-19T12:33:45;5.75;;;4.65;;
33844;SDS011;20145;43.118;25.694;2022-08-19T12:36:12;5.30;;;4.80;;
33844;SDS011;20145;43.118;25.694;2022-08-19T12:38:40;6.78;;;4.82;;
33844;SDS011;20145;43.118;25.694;2022-08-19T12:41:09;5.95;;;4.57;;
33844;SDS011;20145;43.118;25.694;2022-08-19T12:43:37;9.05;;;4.85;;
33844;SDS011;20145;43.118;25.694;2022-08-19T12:46:03;7.85;;;4.30;;
33844;SDS011;20145;43.118;25.694;2022-08-19T12:48:30;6.15;;;4.18;;
33844;SDS011;20145;43.118;25.694;2022-08-19T12:50:56;8.68;;;5.13;;
33844;SDS011;20145;43.118;25.694;2022-08-19T12:53:22;6.60;;;5.20;;
33844;SDS011;20145;43.118;25.694;2022-08-19T12:55:54;6.20;;;4.40;;
33844;SDS011;20145;43.118;25.694;2022-08-19T12:58:21;5.80;;;5.20;;
33844;SDS011;20145;43.118;25.694;2022-08-19T13:00:48;11.25;;;5.03;;
33844;SDS011;20145;43.118;25.694;2022-08-19T13:03:14;7.97;;;4.63;;
33844;SDS011;20145;43.118;25.694;2022-08-19T13:05:40;7.95;;;5.05;;
33844;SDS011;20145;43.118;25.694;2022-08-19T13:08:06;8.63;;;4.95;;
33844;SDS011;20145;43.118;25.694;2022-08-19T13:10:33;10.27;;;4.45;;
33844;SDS011;20145;43.118;25.694;2022-08-19T13:13:00;6.40;;;4.47;;
33844;SDS011;20145;43.118;25.694;2022-08-19T13:15:33;6.85;;;4.22;;
33844;SDS011;20145;43.118;25.694;2022-08-19T13:17:59;7.65;;;5.05;;
33844;SDS011;20145;43.118;25.694;2022-08-19T13:20:26;7.65;;;5.10;;
33844;SDS011;20145;43.118;25.694;2022-08-19T13:22:52;7.50;;;4.85;;
33844;SDS011;20145;43.118;25.694;2022-08-19T13:25:19;10.00;;;5.07;;
33844;SDS011;20145;43.118;25.694;2022-08-19T13:27:45;7.88;;;4.85;;
33844;SDS011;20145;43.118;25.694;2022-08-19T13:30:13;10.07;;;4.70;;
33844;SDS011;20145;43.118;25.694;2022-08-19T13:32:58;6.95;;;5.40;;
33844;SDS011;20145;43.118;25.694;2022-08-19T13:35:37;6.28;;;4.53;;
33844;SDS011;20145;43.118;25.694;2022-08-19T13:38:11;7.18;;;4.53;;
33844;SDS011;20145;43.118;25.694;2022-08-19T13:40:37;8.85;;;4.60;;
33844;SDS011;20145;43.118;25.694;2022-08-19T13:43:04;6.45;;;4.55;;
33844;SDS011;20145;43.118;25.694;2022-08-19T13:45:31;7.22;;;4.53;;
33844;SDS011;20145;43.118;25.694;2022-08-19T13:47:59;5.85;;;4.20;;
33844;SDS011;20145;43.118;25.694;2022-08-19T13:50:28;6.90;;;4.38;;
33844;SDS011;20145;43.118;25.694;2022-08-19T13:52:58;10.25;;;4.53;;
33844;SDS011;20145;43.118;25.694;2022-08-19T13:55:25;6.65;;;4.25;;
33844;SDS011;20145;43.118;25.694;2022-08-19T13:57:55;6.15;;;4.15;;
33844;SDS011;20145;43.118;25.694;2022-08-19T14:00:23;9.07;;;4.40;;
33844;SDS011;20145;43.118;25.694;2022-08-19T14:02:52;5.57;;;4.15;;
33844;SDS011;20145;43.118;25.694;2022-08-19T14:05:19;4.55;;;4.13;;
33844;SDS011;20145;43.118;25.694;2022-08-19T14:07:45;5.70;;;4.72;;
33844;SDS011;20145;43.118;25.694;2022-08-19T14:10:12;5.40;;;4.50;;
33844;SDS011;20145;43.118;25.694;2022-08-19T14:12:39;7.07;;;4.30;;
33844;SDS011;20145;43.118;25.694;2022-08-19T14:15:07;4.85;;;4.18;;
33844;SDS011;20145;43.118;25.694;2022-08-19T14:17:33;9.07;;;4.30;;
33844;SDS011;20145;43.118;25.694;2022-08-19T14:20:00;6.43;;;4.53;;
33844;SDS011;20145;43.118;25.694;2022-08-19T14:22:32;7.40;;;3.88;;
33844;SDS011;20145;43.118;25.694;2022-08-19T14:24:59;5.22;;;4.20;;
33844;SDS011;20145;43.118;25.694;2022-08-19T14:27:25;7.30;;;4.72;;
33844;SDS011;20145;43.118;25.694;2022-08-19T14:29:53;9.10;;;4.53;;
33844;SDS011;20145;43.118;25.694;2022-08-19T14:32:20;6.05;;;4.05;;
33844;SDS011;20145;43.118;25.694;2022-08-19T14:34:46;7.80;;;4.30;;
33844;SDS011;20145;43.118;25.694;2022-08-19T14:37:13;5.03;;;4.50;;
33844;SDS011;20145;43.118;25.694;2022-08-19T14:39:40;9.32;;;5.38;;
33844;SDS011;20145;43.118;25.694;2022-08-19T14:42:06;5.57;;;4.18;;
33844;SDS011;20145;43.118;25.694;2022-08-19T14:44:33;5.03;;;4.50;;
33844;SDS011;20145;43.118;25.694;2022-08-19T14:46:59;9.88;;;4.72;;
33844;SDS011;20145;43.118;25.694;2022-08-19T14:49:25;7.30;;;4.22;;
33844;SDS011;20145;43.118;25.694;2022-08-19T14:51:51;8.52;;;4.40;;